This is the latest recevied weather packets stored in our database for station/object KC8JWT. If no packets are shown the sender has not sent any weather packets the latest 10 day(s).
| Time | Temp. | Humidity | Pressure | Rain* | Wind** | Luminosity | Snow |
|---|---|---|---|---|---|---|---|
| 1777605458 | 3.89° C | 99% | 1016.1 hPa | 0 mm | - | 0 W/m² | - |
| 1777605156 | 3.89° C | 99% | 1016.2 hPa | 0 mm | - | 0 W/m² | - |
| 1777604851 | 4.44° C | 99% | 1016.1 hPa | 0 mm | - | 0 W/m² | - |
| 1777604547 | 4.44° C | 99% | 1016.2 hPa | 0 mm | - | 0 W/m² | - |
| 1777604243 | 4.44° C | 99% | 1016.5 hPa | 0 mm | - | 0 W/m² | - |
| 1777603939 | 4.44° C | 99% | 1016.3 hPa | 0 mm | - | 0 W/m² | - |
| 1777603636 | 4.44° C | 99% | 1016.6 hPa | 0 mm | - | 0 W/m² | - |
| 1777603332 | 5° C | 99% | 1016.3 hPa | 0 mm | - | 0 W/m² | - |
| 1777603028 | 5° C | 98% | 1016.3 hPa | 0 mm | - | 0 W/m² | - |
| 1777602723 | 5° C | 98% | 1016.1 hPa | 0 mm | - | 0 W/m² | - |
| 1777602417 | 5° C | 98% | 1016.4 hPa | 0 mm | - | 0 W/m² | - |
| 1777602115 | 5.56° C | 98% | 1016.3 hPa | 0 mm | - | 0 W/m² | - |
| 1777601810 | 5° C | 98% | 1016.5 hPa | 0 mm | - | 0 W/m² | - |
| 1777600594 | 5.56° C | 97% | 1016 hPa | 0 mm | - | 0 W/m² | - |
| 1777586630 | 14.44° C | 71% | 1014.9 hPa | 0 mm | - | 108 W/m² | - |
| 1777586326 | 13.89° C | 71% | 1014.6 hPa | 0 mm | - | 362 W/m² | - |
| 1777582994 | 12.22° C | 82% | 1015 hPa | 0 mm | - | 210 W/m² | - |
| 1777582392 | 11.67° C | 88% | 1015.1 hPa | 0 mm | - | 234 W/m² | - |
| 1777581490 | 12.78° C | 93% | 1015.1 hPa | 0 mm | - | 586 W/m² | - |
| 1777579968 | 9.44° C | 94% | 1015.1 hPa | 3.05 mm | - | 226 W/m² | - |
| 1777579362 | 10.56° C | 89% | 1015.6 hPa | 13.72 mm | - | 91 W/m² | - |
| 1777577844 | 15° C | 76% | 1014.7 hPa | 0 mm | - | 844 W/m² | - |
| 1777576927 | 12.78° C | 80% | 1014.8 hPa | 0 mm | - | 347 W/m² | - |
| 1777576623 | 12.78° C | 82% | 1015.1 hPa | 0 mm | - | 570 W/m² | - |
| 1777576014 | 12.78° C | 80% | 1015.2 hPa | 0 mm | - | 371 W/m² | - |
* Rain latest hour (hover to see other rain measurements)
** Current wind speed in m/s (hover to see current wind gust speed)